Paradise, MI (49768)

5:57 AM EDT on May 30, 2015 (GMT -0400)
APRSWXNET | | Change Station
CLOSE
Current Station
Personal Weather Station
Location: Paradise, MI
Elevation: 643 ft
Nearby Weather Stations

Elev 643 ft 46.61 °N, 85.04 °W | Updated 31 minutes ago

Rain
Rain
45 °F
Feels Like 45 °F
N
2
Wind Variable Wind from WNW
Gusts 15.0 mph

Today
High -- | Low -- °F
--% Chance of Precip.
Yesterday
High -- | Low -- °F
Precip. -- in
5:52 AM 9:24 PM
Waxing Gibbous, 89% visible
Pressure 29.96 in
Visibility 10.0 miles
Clouds Overcast 300 ft
Windchill 45 °F
Dew Point 44 °F
Humidity 96%
Rainfall in
Snow Depth Not available.
UV 0 out of 12
Pollen 7.30 out of 12
Air Quality Not available.
Flu Activity Sporadic
METAR KERY 300935Z AUTO 33008G14KT 10SM -RA OVC003 08/08 A2996 RMK AO2 P0001 T00780075

More Conditions Fewer Conditions

Pressure 29.96 in
Visibility 10.0 miles
Clouds Overcast 300 ft
Windchill 45 °F
Dew Point 44 °F
Humidity 96%
Rainfall in
Snow Depth Not available.
UV 0 out of 12
Pollen 7.30 out of 12
Air Quality Not available.
Flu Activity Sporadic
METAR KERY 300935Z AUTO 33008G14KT 10SM -RA OVC003 08/08 A2996 RMK AO2 P0001 T00780075

More Conditions Fewer Conditions

Nowcast | as of 5:00 am EDT on May 30, 2015

At 6 am...patchy fog. Showers. Temperature 51. Northwest winds 10 mph. At 8 am...cloudy. Temperature 50. Northwest winds 11 mph. At 10 am...mostly cloudy. Temperature 54. Northwest winds 13 mph. At 12 PM...mostly cloudy. Temperature 56. Northwest winds 14 mph.

×

10-Day Weather Forecast

Almanac

Astronomy

May. 30, 2015 Rise Set
Actual Time
Civil Twilight
Nautical Twilight
Astronomical Twilight
Moon
Length of Visible Light
Length of Day
Tomorrow will be .
, % of the Moon is Illuminated

Today's Extremes

State Highs State Lows

Community

WunderPhotos

Upload Photos

1,825,476 photos uploaded!

WunderBlogs® & News

Nearby

Air Quality

  Air Quality AQ Index Pollutant
Not available.

Snow Depth

Station Depth Elevation

Earthquake Activity

City Distance Mag. Time & Date
Minimum magnitude displayed is 2.5.

Coastal Water Temperatures

Place Temperature

Stations

Nearby Weather Stations

Station Location Temp. Windchill Dew Point Humidity Wind Precip. Elev Updated Type